Geo Explorer — V4YI — position and weather

sailwx.info

Track history (hours):
 
Tides and Currents Weather Stations Pressure Air Temp Water Temp Dewpoint Dewpoint Depression Visibility Wind Speed Wind Dir Waves Ship Positions

Geo Explorer

Last reported at 2017-Dec-09 15:52 UTC. Time now 2017-Dec-14 08:19 UTC.
Position N 33°37' W 118°16'.

Length 75 m; draft 7.5 m.

Type: Other ship. MMSI: 341632000.

Date/timePositionNaut miles runAvg speedWind from/ knotsBaromVisibWave heightAir tempDewpointWater temp
2017-Dec-09 15:52N 33°37' W 118°16'2 5.6
2017-Dec-09 15:30N 33°36' W 118°18'3 5.9
2017-Dec-09 15:00N 33°37' W 118°22'3 6.1
2017-Dec-09 14:30N 33°38' W 118°25'3 5.9
2017-Dec-09 14:01N 33°40' W 118°28'3 6.1
2017-Dec-09 13:31N 33°41' W 118°31'7 6.3
2017-Dec-09 12:25N 33°48' W 118°33'9 2.4
2017-Dec-09 08:32N 33°57' W 118°37'1 0.0
2017-Dec-08 13:19N 33°57' W 118°38'3 2.6
2017-Dec-08 12:01N 33°56' W 118°42'0 6.6
2017-Dec-08 12:01N 33°56' W 118°42'0 0.2
2017-Dec-08 11:29N 33°56' W 118°42'2 4.4
2017-Dec-08 11:00N 33°56' W 118°44'2 4.9
2017-Dec-08 10:30N 33°54' W 118°47'1 2.5
2017-Dec-08 10:01N 33°54' W 118°48'0 0.1
2017-Dec-08 09:30N 33°54' W 118°48'2 4.7
2017-Dec-08 09:00N 33°54' W 118°51'2 4.9
2017-Dec-08 08:30N 33°54' W 118°54'2 5.0
2017-Dec-08 08:01N 33°53' W 118°57'3 5.0
2017-Dec-08 07:31N 33°53' W 118°60'1 2.6
2017-Dec-08 07:00N 33°52' W 119°01'0 0.0
2017-Dec-08 06:31N 33°52' W 119°01'0 0.0
2017-Dec-08 06:01N 33°52' W 119°01'0 1.0
2017-Dec-08 05:31N 33°52' W 119°01'3 4.9
2017-Dec-08 04:59N 33°53' W 119°04'0 0.3
2017-Dec-08 04:27N 33°53' W 119°04'0 0.0
2017-Dec-08 03:58N 33°53' W 119°04'0 0.8
2017-Dec-08 03:30N 33°53' W 119°05'3 5.0
2017-Dec-08 02:59N 33°53' W 119°08'1 1.3
2017-Dec-08 02:30N 33°53' W 119°09'0 0.0
2017-Dec-08 02:00N 33°53' W 119°09'0 0.0
2017-Dec-08 01:29N 33°53' W 119°09'2 3.4
2017-Dec-08 01:00N 33°53' W 119°07'0 0.3
2017-Dec-08 00:25N 33°53' W 119°06'0 0.0
2017-Dec-08 00:00N 33°53' W 119°06'0 0.8
2017-Dec-07 23:31N 33°54' W 119°06'2 4.4
2017-Dec-07 23:01N 33°53' W 119°04'1 1.3
2017-Dec-07 22:30N 33°52' W 119°03'0 0.1
2017-Dec-07 22:01N 33°52' W 119°03'2 4.6
2017-Dec-07 21:28N 33°52' W 119°00'1 2.5
2017-Dec-07 21:00N 33°52' W 118°59'0 0.0
2017-Dec-07 20:30N 33°52' W 118°59'2 3.0
2017-Dec-07 20:00N 33°52' W 118°57'2 4.5
2017-Dec-07 19:29N 33°53' W 118°54'1 2.2
2017-Dec-07 19:00N 33°53' W 118°53'0 0.0
2017-Dec-07 18:31N 33°53' W 118°53'1 2.0
2017-Dec-07 18:01N 33°53' W 118°52'3 5.6
2017-Dec-07 17:31N 33°54' W 118°49'3 5.3
2017-Dec-07 16:53N 33°55' W 118°45'0 0.8
2017-Dec-07 16:30N 33°55' W 118°44'6 1.4
2017-Dec-07 11:57N 33°57' W 118°37'5 4.0
2017-Dec-07 10:40N 33°56' W 118°43'1 4.2
2017-Dec-07 10:30N 33°56' W 118°44'1 3.0
2017-Dec-07 10:01N 33°56' W 118°46'1 2.9
2017-Dec-07 09:31N 33°55' W 118°47'1 2.8
2017-Dec-07 09:00N 33°55' W 118°49'1 3.0
2017-Dec-07 08:30N 33°55' W 118°51'2 3.0
2017-Dec-07 08:01N 33°55' W 118°53'2 4.0
2017-Dec-07 07:30N 33°55' W 118°55'3 5.8
2017-Dec-07 07:01N 33°54' W 118°58'3 6.0
2017-Dec-07 06:30N 33°53' W 119°02'3 5.4
2017-Dec-07 05:57N 33°52' W 119°05'2 4.8
2017-Dec-07 05:31N 33°51' W 119°08'2 3.7
2017-Dec-07 05:00N 33°51' W 119°10'2 4.5
2017-Dec-07 04:30N 33°50' W 119°13'1 3.0
2017-Dec-07 04:00N 33°50' W 119°14'1 2.8
2017-Dec-07 03:30N 33°51' W 119°13'2 3.1
2017-Dec-07 03:01N 33°52' W 119°12'2 3.8
2017-Dec-07 02:31N 33°53' W 119°10'2 3.4
2017-Dec-07 02:00N 33°54' W 119°08'1 2.9
2017-Dec-07 01:30N 33°54' W 119°06'1 2.9
2017-Dec-07 01:00N 33°53' W 119°04'1 2.6
2017-Dec-07 00:30N 33°52' W 119°03'1 2.7
2017-Dec-07 00:00N 33°52' W 119°01'1 2.7
2017-Dec-06 23:31N 33°52' W 118°60'1 2.7
2017-Dec-06 23:00N 33°52' W 118°58'1 2.7
2017-Dec-06 22:30N 33°52' W 118°56'1 2.7
2017-Dec-06 22:01N 33°53' W 118°55'1 2.7
2017-Dec-06 21:30N 33°53' W 118°53'1 2.8
2017-Dec-06 21:00N 33°53' W 118°52'  
2017-Dec-04 10:29N 33°37' W 119°20'0 0.0
2017-Dec-04 10:01N 33°37' W 119°20'0 0.0
2017-Dec-04 09:31N 33°37' W 119°20'0 0.0
2017-Dec-04 09:01N 33°37' W 119°20'1 1.7
2017-Dec-04 08:31N 33°36' W 119°21'2 4.9
2017-Dec-04 08:01N 33°34' W 119°21'3 5.3
2017-Dec-04 07:30N 33°31' W 119°22'1 2.2
2017-Dec-04 07:01N 33°31' W 119°20'1 2.0
2017-Dec-04 06:31N 33°32' W 119°20'1 2.3
2017-Dec-04 06:00N 33°33' W 119°20'1 2.5
2017-Dec-04 05:31N 33°35' W 119°20'1 2.6
2017-Dec-04 05:01N 33°36' W 119°20'1 2.7
2017-Dec-04 04:31N 33°37' W 119°20'1 2.7
2017-Dec-04 03:59N 33°39' W 119°20'1 2.9
2017-Dec-04 03:29N 33°40' W 119°20'1 2.7
2017-Dec-04 02:58N 33°41' W 119°20'1 2.9
2017-Dec-04 02:30N 33°43' W 119°20'1 2.6
2017-Dec-04 02:00N 33°44' W 119°20'2 3.1
2017-Dec-04 01:30N 33°45' W 119°21'1 2.6
2017-Dec-04 01:00N 33°46' W 119°20'1 2.8
2017-Dec-04 00:28N 33°47' W 119°19'1 3.0
2017-Dec-04 00:00N 33°48' W 119°18'1 2.8
2017-Dec-03 23:29N 33°49' W 119°16'2 3.5
2017-Dec-03 22:56N 33°51' W 119°15'2 5.0
2017-Dec-03 22:30N 33°52' W 119°12'2 3.1
2017-Dec-03 22:00N 33°50' W 119°13'2 2.8
2017-Dec-03 21:26N 33°50' W 119°15'1 2.6
2017-Dec-03 21:00N 33°49' W 119°16'1 2.8
2017-Dec-03 20:30N 33°48' W 119°18'2 3.2
2017-Dec-03 20:00N 33°48' W 119°19'2 4.3
2017-Dec-03 19:31N 33°45' W 119°19'3 5.5
2017-Dec-03 19:00N 33°43' W 119°19'1 1.6
2017-Dec-03 18:31N 33°42' W 119°19'1 2.7
2017-Dec-03 18:01N 33°43' W 119°20'2 2.7
2017-Dec-03 17:27N 33°45' W 119°21'1 2.7
2017-Dec-03 17:01N 33°46' W 119°21'1 2.5
2017-Dec-03 16:31N 33°47' W 119°20'2 2.9
2017-Dec-03 15:59N 33°48' W 119°18'1 2.8
2017-Dec-03 15:30N 33°49' W 119°17'2 3.7
2017-Dec-03 15:00N 33°50' W 119°15'3 5.4
2017-Dec-03 14:30N 33°51' W 119°12'1 2.3
2017-Dec-03 14:00N 33°50' W 119°13'2 2.9
2017-Dec-03 13:29N 33°49' W 119°15'1 2.7
2017-Dec-03 13:01N 33°49' W 119°16'1 2.8
2017-Dec-03 12:28N 33°48' W 119°18'1 2.9
2017-Dec-03 12:00N 33°47' W 119°19'2 4.0
2017-Dec-03 11:30N 33°49' W 119°17'1 2.9
2017-Dec-03 11:00N 33°49' W 119°16'1 2.8
2017-Dec-03 10:30N 33°50' W 119°14'1 2.5
2017-Dec-03 09:59N 33°51' W 119°13'1 2.8
2017-Dec-03 09:29N 33°51' W 119°11'1 2.6
2017-Dec-03 09:00N 33°52' W 119°10'1 2.6
2017-Dec-03 08:30N 33°53' W 119°09'2 3.6
2017-Dec-03 08:00N 33°55' W 119°08'3 5.1
2017-Dec-03 07:27N 33°53' W 119°11'2 5.0
2017-Dec-03 06:59N 33°52' W 119°13'1 3.0
2017-Dec-03 06:30N 33°52' W 119°12'2 3.0
2017-Dec-03 06:00N 33°53' W 119°10'2 3.1
2017-Dec-03 05:30N 33°53' W 119°08'1 2.7
2017-Dec-03 05:00N 33°54' W 119°07'1 2.7
2017-Dec-03 04:31N 33°53' W 119°05'1 2.9
2017-Dec-03 04:00N 33°53' W 119°04'2 3.3
2017-Dec-03 03:30N 33°52' W 119°02'1 2.9
2017-Dec-03 03:01N 33°52' W 119°00'2 3.1
2017-Dec-03 02:30N 33°52' W 118°58'2 3.1
2017-Dec-03 02:00N 33°52' W 118°56'2 3.0
2017-Dec-03 01:26N 33°53' W 118°54'1 3.1
2017-Dec-03 00:59N 33°53' W 118°53'2 3.2
2017-Dec-03 00:13N 33°53' W 118°50'1 3.2
2017-Dec-03 00:00N 33°54' W 118°49'2 3.1
2017-Dec-02 23:30N 33°54' W 118°47'1 2.9
2017-Dec-02 23:00N 33°54' W 118°46'2 3.1
2017-Dec-02 22:29N 33°55' W 118°44'2 3.1
2017-Dec-02 21:46N 33°56' W 118°42'0 1.3
2017-Dec-02 21:30N 33°56' W 118°41'2 4.9
2017-Dec-02 21:00N 33°55' W 118°44'2 4.8
2017-Dec-02 20:30N 33°54' W 118°46'2 4.7
2017-Dec-02 20:00N 33°54' W 118°49'2 4.3
2017-Dec-02 19:28N 33°53' W 118°52'2 3.9
2017-Dec-02 19:00N 33°52' W 118°54'3 4.9
2017-Dec-02 18:29N 33°52' W 118°57'3 5.7
2017-Dec-02 18:00N 33°52' W 119°00'3 5.2
2017-Dec-02 17:31N 33°52' W 119°03'2 3.6
2017-Dec-02 17:01N 33°53' W 119°05'2 4.2
2017-Dec-02 16:30N 33°53' W 119°08'3 4.9
2017-Dec-02 15:59N 33°52' W 119°10'2 4.4
2017-Dec-02 15:31N 33°51' W 119°12'2 3.1
2017-Dec-02 14:58N 33°52' W 119°11'1 2.8
2017-Dec-02 14:30N 33°53' W 119°10'1 2.6
2017-Dec-02 14:01N 33°54' W 119°09'0 0.5
2017-Dec-02 13:30N 33°54' W 119°09'1 2.8
2017-Dec-02 13:00N 33°53' W 119°10'1 2.8
2017-Dec-02 12:29N 33°52' W 119°11'1 2.7
2017-Dec-02 12:00N 33°51' W 119°12'1 2.7
2017-Dec-02 11:30N 33°50' W 119°13'1 2.8
2017-Dec-02 11:00N 33°49' W 119°15'2 3.0
2017-Dec-02 10:29N 33°49' W 119°16'1 3.1
2017-Dec-02 10:01N 33°48' W 119°18'2 3.3
2017-Dec-02 09:30N 33°47' W 119°19'1 2.9
2017-Dec-02 09:00N 33°46' W 119°21'1 2.6
2017-Dec-02 08:30N 33°44' W 119°20'1 2.6
2017-Dec-02 07:59N 33°43' W 119°20'1 2.8
2017-Dec-02 07:27N 33°42' W 119°19'1 2.6
2017-Dec-02 06:57N 33°40' W 119°20'1 2.5
2017-Dec-02 06:30N 33°39' W 119°20'1 2.8
2017-Dec-02 06:01N 33°38' W 119°20'1 2.7
2017-Dec-02 05:29N 33°37' W 119°20'1 2.9
2017-Dec-02 05:00N 33°35' W 119°20'1 3.0
2017-Dec-02 04:30N 33°34' W 119°20'2 3.8
2017-Dec-02 04:01N 33°32' W 119°20'1 1.7
2017-Dec-02 03:30N 33°31' W 119°21'2 3.3
2017-Dec-02 03:00N 33°33' W 119°20'1 2.9
2017-Dec-02 02:31N 33°34' W 119°20'1 2.7
2017-Dec-02 01:59N 33°36' W 119°20'1 2.6
2017-Dec-02 01:30N 33°37' W 119°20'1 2.8
2017-Dec-02 01:01N 33°38' W 119°20'2 2.9
2017-Dec-02 00:27N 33°40' W 119°20'1 2.9
2017-Dec-02 00:01N 33°41' W 119°20'2 3.0
2017-Dec-01 23:30N 33°43' W 119°19'1 1.2
2017-Dec-01 23:00N 33°43' W 119°20'3 5.5
2017-Dec-01 22:30N 33°40' W 119°21'2 3.5
2017-Dec-01 22:00N 33°38' W 119°21'1 2.4
2017-Dec-01 21:29N 33°40' W 119°20'1 2.4
2017-Dec-01 20:59N 33°41' W 119°20'1 2.6
2017-Dec-01 20:29N 33°42' W 119°20'1 2.6
2017-Dec-01 20:00N 33°43' W 119°20'1 2.8
2017-Dec-01 19:29N 33°45' W 119°21'1 2.6
2017-Dec-01 19:00N 33°46' W 119°21'1 2.4
2017-Dec-01 18:30N 33°47' W 119°20'1 2.8
2017-Dec-01 18:01N 33°48' W 119°18'1 2.8
2017-Dec-01 17:29N 33°49' W 119°17'1 2.7
2017-Dec-01 16:59N 33°49' W 119°16'1 2.7
2017-Dec-01 16:30N 33°50' W 119°14'1 2.8
2017-Dec-01 16:01N 33°50' W 119°13'1 2.9
2017-Dec-01 15:30N 33°51' W 119°11'1 2.7
2017-Dec-01 14:59N 33°52' W 119°10'1 2.6
2017-Dec-01 14:30N 33°53' W 119°09'1 2.9
2017-Dec-01 14:00N 33°54' W 119°08'1 2.0
2017-Dec-01 13:30N 33°54' W 119°09'3 5.4
2017-Dec-01 13:00N 33°52' W 119°11'3 5.4
2017-Dec-01 12:27N 33°50' W 119°14'2 5.3
2017-Dec-01 12:00N 33°49' W 119°16'3 5.2
2017-Dec-01 11:30N 33°47' W 119°19'3 5.2
2017-Dec-01 11:00N 33°45' W 119°20'3 5.3
2017-Dec-01 10:31N 33°42' W 119°20'3 5.2
2017-Dec-01 10:00N 33°40' W 119°20'3 5.4
2017-Dec-01 09:25N 33°37' W 119°20'2 5.3
2017-Dec-01 08:59N 33°34' W 119°20'3 5.4
2017-Dec-01 08:31N 33°32' W 119°20'3 5.6
2017-Dec-01 08:01N 33°29' W 119°19'3 5.4
2017-Dec-01 07:30N 33°27' W 119°17'3 5.2
2017-Dec-01 07:00N 33°24' W 119°16'2 3.3
2017-Dec-01 06:30N 33°23' W 119°15'0 0.9
2017-Dec-01 06:00N 33°23' W 119°14'0 0.0
2017-Dec-01 05:30N 33°23' W 119°14'0 0.0
2017-Dec-01 05:00N 33°23' W 119°14'1 1.7
2017-Dec-01 04:30N 33°22' W 119°14'3 5.3
2017-Dec-01 04:01N 33°20' W 119°13'3 5.3
2017-Dec-01 03:30N 33°17' W 119°11'0 0.9
2017-Dec-01 03:00N 33°17' W 119°11'0 0.0
2017-Dec-01 02:29N 33°17' W 119°11'0 0.0
2017-Dec-01 02:01N 33°17' W 119°11'0 0.5
2017-Dec-01 01:31N 33°17' W 119°11'3 5.7
2017-Dec-01 01:00N 33°20' W 119°12'2 4.3
2017-Dec-01 00:30N 33°22' W 119°13'0 0.3
2017-Dec-01 00:01N 33°22' W 119°13'0 0.3
2017-Nov-30 23:31N 33°22' W 119°13'0 0.1
2017-Nov-30 23:00N 33°22' W 119°14'2 4.4
2017-Nov-30 22:30N 33°20' W 119°12'0 0.7
2017-Nov-30 22:00N 33°20' W 119°12'0 0.0
2017-Nov-30 21:30N 33°20' W 119°12'2 2.9
2017-Nov-30 20:59N 33°19' W 119°11'2 5.2
2017-Nov-30 20:31N 33°16' W 119°10'3 5.3
2017-Nov-30 20:00N 33°14' W 119°09'2 2.7
2017-Nov-30 19:26N 33°12' W 119°09'0 0.0
2017-Nov-30 18:56N 33°12' W 119°09'0 0.0
2017-Nov-30 18:30N 33°12' W 119°09'0 0.9
2017-Nov-30 18:00N 33°13' W 119°09'2 3.6
2017-Nov-30 17:30N 33°15' W 119°10'1 1.7
2017-Nov-30 17:00N 33°15' W 119°10'2 4.3
2017-Nov-30 16:29N 33°13' W 119°09'0 0.0
2017-Nov-30 16:00N 33°13' W 119°09'0 0.0
2017-Nov-30 15:30N 33°13' W 119°09'0 0.0
2017-Nov-30 15:00N 33°13' W 119°09'2 4.1
2017-Nov-30 14:31N 33°11' W 119°08'3 5.1
2017-Nov-30 14:00N 33°09' W 119°08'2 4.5
2017-Nov-30 13:30N 33°07' W 119°08'2 3.4
2017-Nov-30 12:58N 33°08' W 119°08'1 3.0
2017-Nov-30 12:30N 33°10' W 119°09'1 2.8
2017-Nov-30 12:00N 33°11' W 119°09'1 2.8
2017-Nov-30 11:30N 33°12' W 119°09'1 2.9
2017-Nov-30 11:00N 33°14' W 119°09'1 2.9
2017-Nov-30 10:30N 33°15' W 119°10'1 2.8
2017-Nov-30 10:00N 33°17' W 119°11'1 2.9
2017-Nov-30 09:31N 33°18' W 119°11'1 2.8
2017-Nov-30 09:01N 33°19' W 119°12'1 2.8
2017-Nov-30 08:31N 33°20' W 119°13'1 2.9
2017-Nov-30 08:01N 33°22' W 119°14'1 3.0
2017-Nov-30 07:31N 33°23' W 119°15'1 3.0
2017-Nov-30 07:01N 33°24' W 119°16'1 2.8
2017-Nov-30 06:30N 33°25' W 119°17'2 4.2
2017-Nov-30 06:00N 33°27' W 119°18'1 2.9
2017-Nov-30 05:30N 33°26' W 119°17'1 2.5
2017-Nov-30 05:00N 33°25' W 119°16'1 2.6
2017-Nov-30 04:30N 33°24' W 119°15'1 2.7
2017-Nov-30 04:00N 33°23' W 119°14'2 2.9
2017-Nov-30 03:15N 33°21' W 119°13'1 2.9
2017-Nov-30 03:00N 33°20' W 119°12'1 2.6
2017-Nov-30 02:30N 33°19' W 119°12'1 2.5
2017-Nov-30 02:00N 33°18' W 119°11'2 3.1
2017-Nov-30 01:13N 33°16' W 119°10'1 3.1
2017-Nov-30 01:01N 33°15' W 119°10'2 3.0
2017-Nov-30 00:28N 33°14' W 119°09'2 2.9
2017-Nov-29 23:45N 33°11' W 119°08'1 3.0
2017-Nov-29 23:30N 33°11' W 119°08'2 4.0
2017-Nov-29 23:01N 33°09' W 119°08'1 1.7
2017-Nov-29 22:28N 33°08' W 119°09'1 2.8
2017-Nov-29 22:00N 33°09' W 119°09'1 2.8
2017-Nov-29 21:31N 33°11' W 119°08'1 2.8
2017-Nov-29 21:00N 33°12' W 119°09'1 2.8
2017-Nov-29 20:31N 33°14' W 119°09'2 2.9
2017-Nov-29 19:58N 33°15' W 119°10'1 3.0
2017-Nov-29 19:30N 33°16' W 119°10'1 3.0
2017-Nov-29 19:00N 33°18' W 119°11'2 2.9
2017-Nov-29 18:28N 33°19' W 119°12'1 3.0
2017-Nov-29 18:01N 33°20' W 119°12'1 2.9
2017-Nov-29 17:31N 33°22' W 119°13'1 2.9
2017-Nov-29 17:00N 33°23' W 119°14'1 2.7
2017-Nov-29 16:30N 33°24' W 119°15'1 2.8
2017-Nov-29 16:01N 33°25' W 119°16'  
Track history (hours):
 
Tides and Currents Weather Stations Pressure Air Temp Water Temp Dewpoint Dewpoint Depression Visibility Wind Speed Wind Dir Waves Ship Positions

Geo Explorer

Last reported at 2017-Dec-09 15:52 UTC. Time now 2017-Dec-14 08:19 UTC.
Position N 33°37' W 118°16'.

Length 75 m; draft 7.5 m.

Type: Other ship. MMSI: 341632000.

Date/timePositionNaut miles runAvg speedWind from/ knotsBaromVisibWave heightAir tempDewpointWater temp
2017-Dec-09 15:52N 33°37' W 118°16'2 5.6
2017-Dec-09 15:30N 33°36' W 118°18'3 5.9
2017-Dec-09 15:00N 33°37' W 118°22'3 6.1
2017-Dec-09 14:30N 33°38' W 118°25'3 5.9
2017-Dec-09 14:01N 33°40' W 118°28'3 6.1
2017-Dec-09 13:31N 33°41' W 118°31'7 6.3
2017-Dec-09 12:25N 33°48' W 118°33'9 2.4
2017-Dec-09 08:32N 33°57' W 118°37'1 0.0
2017-Dec-08 13:19N 33°57' W 118°38'3 2.6
2017-Dec-08 12:01N 33°56' W 118°42'0 6.6
2017-Dec-08 12:01N 33°56' W 118°42'0 0.2
2017-Dec-08 11:29N 33°56' W 118°42'2 4.4
2017-Dec-08 11:00N 33°56' W 118°44'2 4.9
2017-Dec-08 10:30N 33°54' W 118°47'1 2.5
2017-Dec-08 10:01N 33°54' W 118°48'0 0.1
2017-Dec-08 09:30N 33°54' W 118°48'2 4.7
2017-Dec-08 09:00N 33°54' W 118°51'2 4.9
2017-Dec-08 08:30N 33°54' W 118°54'2 5.0
2017-Dec-08 08:01N 33°53' W 118°57'3 5.0
2017-Dec-08 07:31N 33°53' W 118°60'1 2.6
2017-Dec-08 07:00N 33°52' W 119°01'0 0.0
2017-Dec-08 06:31N 33°52' W 119°01'0 0.0
2017-Dec-08 06:01N 33°52' W 119°01'0 1.0
2017-Dec-08 05:31N 33°52' W 119°01'3 4.9
2017-Dec-08 04:59N 33°53' W 119°04'0 0.3
2017-Dec-08 04:27N 33°53' W 119°04'0 0.0
2017-Dec-08 03:58N 33°53' W 119°04'0 0.8
2017-Dec-08 03:30N 33°53' W 119°05'3 5.0
2017-Dec-08 02:59N 33°53' W 119°08'1 1.3
2017-Dec-08 02:30N 33°53' W 119°09'0 0.0
2017-Dec-08 02:00N 33°53' W 119°09'0 0.0
2017-Dec-08 01:29N 33°53' W 119°09'2 3.4
2017-Dec-08 01:00N 33°53' W 119°07'0 0.3
2017-Dec-08 00:25N 33°53' W 119°06'0 0.0
2017-Dec-08 00:00N 33°53' W 119°06'0 0.8
2017-Dec-07 23:31N 33°54' W 119°06'2 4.4
2017-Dec-07 23:01N 33°53' W 119°04'1 1.3
2017-Dec-07 22:30N 33°52' W 119°03'0 0.1
2017-Dec-07 22:01N 33°52' W 119°03'2 4.6
2017-Dec-07 21:28N 33°52' W 119°00'1 2.5
2017-Dec-07 21:00N 33°52' W 118°59'0 0.0
2017-Dec-07 20:30N 33°52' W 118°59'2 3.0
2017-Dec-07 20:00N 33°52' W 118°57'2 4.5
2017-Dec-07 19:29N 33°53' W 118°54'1 2.2
2017-Dec-07 19:00N 33°53' W 118°53'0 0.0
2017-Dec-07 18:31N 33°53' W 118°53'1 2.0
2017-Dec-07 18:01N 33°53' W 118°52'3 5.6
2017-Dec-07 17:31N 33°54' W 118°49'3 5.3
2017-Dec-07 16:53N 33°55' W 118°45'0 0.8
2017-Dec-07 16:30N 33°55' W 118°44'6 1.4
2017-Dec-07 11:57N 33°57' W 118°37'5 4.0
2017-Dec-07 10:40N 33°56' W 118°43'1 4.2
2017-Dec-07 10:30N 33°56' W 118°44'1 3.0
2017-Dec-07 10:01N 33°56' W 118°46'1 2.9
2017-Dec-07 09:31N 33°55' W 118°47'1 2.8
2017-Dec-07 09:00N 33°55' W 118°49'1 3.0
2017-Dec-07 08:30N 33°55' W 118°51'2 3.0
2017-Dec-07 08:01N 33°55' W 118°53'2 4.0
2017-Dec-07 07:30N 33°55' W 118°55'3 5.8
2017-Dec-07 07:01N 33°54' W 118°58'3 6.0
2017-Dec-07 06:30N 33°53' W 119°02'3 5.4
2017-Dec-07 05:57N 33°52' W 119°05'2 4.8
2017-Dec-07 05:31N 33°51' W 119°08'2 3.7
2017-Dec-07 05:00N 33°51' W 119°10'2 4.5
2017-Dec-07 04:30N 33°50' W 119°13'1 3.0
2017-Dec-07 04:00N 33°50' W 119°14'1 2.8
2017-Dec-07 03:30N 33°51' W 119°13'2 3.1
2017-Dec-07 03:01N 33°52' W 119°12'2 3.8
2017-Dec-07 02:31N 33°53' W 119°10'2 3.4
2017-Dec-07 02:00N 33°54' W 119°08'1 2.9
2017-Dec-07 01:30N 33°54' W 119°06'1 2.9
2017-Dec-07 01:00N 33°53' W 119°04'1 2.6
2017-Dec-07 00:30N 33°52' W 119°03'1 2.7
2017-Dec-07 00:00N 33°52' W 119°01'1 2.7
2017-Dec-06 23:31N 33°52' W 118°60'1 2.7
2017-Dec-06 23:00N 33°52' W 118°58'1 2.7
2017-Dec-06 22:30N 33°52' W 118°56'1 2.7
2017-Dec-06 22:01N 33°53' W 118°55'1 2.7
2017-Dec-06 21:30N 33°53' W 118°53'1 2.8
2017-Dec-06 21:00N 33°53' W 118°52'  
2017-Dec-04 10:29N 33°37' W 119°20'0 0.0
2017-Dec-04 10:01N 33°37' W 119°20'0 0.0
2017-Dec-04 09:31N 33°37' W 119°20'0 0.0
2017-Dec-04 09:01N 33°37' W 119°20'1 1.7
2017-Dec-04 08:31N 33°36' W 119°21'2 4.9
2017-Dec-04 08:01N 33°34' W 119°21'3 5.3
2017-Dec-04 07:30N 33°31' W 119°22'1 2.2
2017-Dec-04 07:01N 33°31' W 119°20'1 2.0
2017-Dec-04 06:31N 33°32' W 119°20'1 2.3
2017-Dec-04 06:00N 33°33' W 119°20'1 2.5
2017-Dec-04 05:31N 33°35' W 119°20'1 2.6
2017-Dec-04 05:01N 33°36' W 119°20'1 2.7
2017-Dec-04 04:31N 33°37' W 119°20'1 2.7
2017-Dec-04 03:59N 33°39' W 119°20'1 2.9
2017-Dec-04 03:29N 33°40' W 119°20'1 2.7
2017-Dec-04 02:58N 33°41' W 119°20'1 2.9
2017-Dec-04 02:30N 33°43' W 119°20'1 2.6
2017-Dec-04 02:00N 33°44' W 119°20'2 3.1
2017-Dec-04 01:30N 33°45' W 119°21'1 2.6
2017-Dec-04 01:00N 33°46' W 119°20'1 2.8
2017-Dec-04 00:28N 33°47' W 119°19'1 3.0
2017-Dec-04 00:00N 33°48' W 119°18'1 2.8
2017-Dec-03 23:29N 33°49' W 119°16'2 3.5
2017-Dec-03 22:56N 33°51' W 119°15'2 5.0
2017-Dec-03 22:30N 33°52' W 119°12'2 3.1
2017-Dec-03 22:00N 33°50' W 119°13'2 2.8
2017-Dec-03 21:26N 33°50' W 119°15'1 2.6
2017-Dec-03 21:00N 33°49' W 119°16'1 2.8
2017-Dec-03 20:30N 33°48' W 119°18'2 3.2
2017-Dec-03 20:00N 33°48' W 119°19'2 4.3
2017-Dec-03 19:31N 33°45' W 119°19'3 5.5
2017-Dec-03 19:00N 33°43' W 119°19'1 1.6
2017-Dec-03 18:31N 33°42' W 119°19'1 2.7
2017-Dec-03 18:01N 33°43' W 119°20'2 2.7
2017-Dec-03 17:27N 33°45' W 119°21'1 2.7
2017-Dec-03 17:01N 33°46' W 119°21'1 2.5
2017-Dec-03 16:31N 33°47' W 119°20'2 2.9
2017-Dec-03 15:59N 33°48' W 119°18'1 2.8
2017-Dec-03 15:30N 33°49' W 119°17'2 3.7
2017-Dec-03 15:00N 33°50' W 119°15'3 5.4
2017-Dec-03 14:30N 33°51' W 119°12'1 2.3
2017-Dec-03 14:00N 33°50' W 119°13'2 2.9
2017-Dec-03 13:29N 33°49' W 119°15'1 2.7
2017-Dec-03 13:01N 33°49' W 119°16'1 2.8
2017-Dec-03 12:28N 33°48' W 119°18'1 2.9
2017-Dec-03 12:00N 33°47' W 119°19'2 4.0
2017-Dec-03 11:30N 33°49' W 119°17'1 2.9
2017-Dec-03 11:00N 33°49' W 119°16'1 2.8
2017-Dec-03 10:30N 33°50' W 119°14'1 2.5
2017-Dec-03 09:59N 33°51' W 119°13'1 2.8
2017-Dec-03 09:29N 33°51' W 119°11'1 2.6
2017-Dec-03 09:00N 33°52' W 119°10'1 2.6
2017-Dec-03 08:30N 33°53' W 119°09'2 3.6
2017-Dec-03 08:00N 33°55' W 119°08'3 5.1
2017-Dec-03 07:27N 33°53' W 119°11'2 5.0
2017-Dec-03 06:59N 33°52' W 119°13'1 3.0
2017-Dec-03 06:30N 33°52' W 119°12'2 3.0
2017-Dec-03 06:00N 33°53' W 119°10'2 3.1
2017-Dec-03 05:30N 33°53' W 119°08'1 2.7
2017-Dec-03 05:00N 33°54' W 119°07'1 2.7
2017-Dec-03 04:31N 33°53' W 119°05'1 2.9
2017-Dec-03 04:00N 33°53' W 119°04'2 3.3
2017-Dec-03 03:30N 33°52' W 119°02'1 2.9
2017-Dec-03 03:01N 33°52' W 119°00'2 3.1
2017-Dec-03 02:30N 33°52' W 118°58'2 3.1
2017-Dec-03 02:00N 33°52' W 118°56'2 3.0
2017-Dec-03 01:26N 33°53' W 118°54'1 3.1
2017-Dec-03 00:59N 33°53' W 118°53'2 3.2
2017-Dec-03 00:13N 33°53' W 118°50'1 3.2
2017-Dec-03 00:00N 33°54' W 118°49'2 3.1
2017-Dec-02 23:30N 33°54' W 118°47'1 2.9
2017-Dec-02 23:00N 33°54' W 118°46'2 3.1
2017-Dec-02 22:29N 33°55' W 118°44'2 3.1
2017-Dec-02 21:46N 33°56' W 118°42'0 1.3
2017-Dec-02 21:30N 33°56' W 118°41'2 4.9
2017-Dec-02 21:00N 33°55' W 118°44'2 4.8
2017-Dec-02 20:30N 33°54' W 118°46'2 4.7
2017-Dec-02 20:00N 33°54' W 118°49'2 4.3
2017-Dec-02 19:28N 33°53' W 118°52'2 3.9
2017-Dec-02 19:00N 33°52' W 118°54'3 4.9
2017-Dec-02 18:29N 33°52' W 118°57'3 5.7
2017-Dec-02 18:00N 33°52' W 119°00'3 5.2
2017-Dec-02 17:31N 33°52' W 119°03'2 3.6
2017-Dec-02 17:01N 33°53' W 119°05'2 4.2
2017-Dec-02 16:30N 33°53' W 119°08'3 4.9
2017-Dec-02 15:59N 33°52' W 119°10'2 4.4
2017-Dec-02 15:31N 33°51' W 119°12'2 3.1
2017-Dec-02 14:58N 33°52' W 119°11'1 2.8
2017-Dec-02 14:30N 33°53' W 119°10'1 2.6
2017-Dec-02 14:01N 33°54' W 119°09'0 0.5
2017-Dec-02 13:30N 33°54' W 119°09'1 2.8
2017-Dec-02 13:00N 33°53' W 119°10'1 2.8
2017-Dec-02 12:29N 33°52' W 119°11'1 2.7
2017-Dec-02 12:00N 33°51' W 119°12'1 2.7
2017-Dec-02 11:30N 33°50' W 119°13'1 2.8
2017-Dec-02 11:00N 33°49' W 119°15'2 3.0
2017-Dec-02 10:29N 33°49' W 119°16'1 3.1
2017-Dec-02 10:01N 33°48' W 119°18'2 3.3
2017-Dec-02 09:30N 33°47' W 119°19'1 2.9
2017-Dec-02 09:00N 33°46' W 119°21'1 2.6
2017-Dec-02 08:30N 33°44' W 119°20'1 2.6
2017-Dec-02 07:59N 33°43' W 119°20'1 2.8
2017-Dec-02 07:27N 33°42' W 119°19'1 2.6
2017-Dec-02 06:57N 33°40' W 119°20'1 2.5
2017-Dec-02 06:30N 33°39' W 119°20'1 2.8
2017-Dec-02 06:01N 33°38' W 119°20'1 2.7
2017-Dec-02 05:29N 33°37' W 119°20'1 2.9
2017-Dec-02 05:00N 33°35' W 119°20'1 3.0
2017-Dec-02 04:30N 33°34' W 119°20'2 3.8
2017-Dec-02 04:01N 33°32' W 119°20'1 1.7
2017-Dec-02 03:30N 33°31' W 119°21'2 3.3
2017-Dec-02 03:00N 33°33' W 119°20'1 2.9
2017-Dec-02 02:31N 33°34' W 119°20'1 2.7
2017-Dec-02 01:59N 33°36' W 119°20'1 2.6
2017-Dec-02 01:30N 33°37' W 119°20'1 2.8
2017-Dec-02 01:01N 33°38' W 119°20'2 2.9
2017-Dec-02 00:27N 33°40' W 119°20'1 2.9
2017-Dec-02 00:01N 33°41' W 119°20'2 3.0
2017-Dec-01 23:30N 33°43' W 119°19'1 1.2
2017-Dec-01 23:00N 33°43' W 119°20'3 5.5
2017-Dec-01 22:30N 33°40' W 119°21'2 3.5
2017-Dec-01 22:00N 33°38' W 119°21'1 2.4
2017-Dec-01 21:29N 33°40' W 119°20'1 2.4
2017-Dec-01 20:59N 33°41' W 119°20'1 2.6
2017-Dec-01 20:29N 33°42' W 119°20'1 2.6
2017-Dec-01 20:00N 33°43' W 119°20'1 2.8
2017-Dec-01 19:29N 33°45' W 119°21'1 2.6
2017-Dec-01 19:00N 33°46' W 119°21'1 2.4
2017-Dec-01 18:30N 33°47' W 119°20'1 2.8
2017-Dec-01 18:01N 33°48' W 119°18'1 2.8
2017-Dec-01 17:29N 33°49' W 119°17'1 2.7
2017-Dec-01 16:59N 33°49' W 119°16'1 2.7
2017-Dec-01 16:30N 33°50' W 119°14'1 2.8
2017-Dec-01 16:01N 33°50' W 119°13'1 2.9
2017-Dec-01 15:30N 33°51' W 119°11'1 2.7
2017-Dec-01 14:59N 33°52' W 119°10'1 2.6
2017-Dec-01 14:30N 33°53' W 119°09'1 2.9
2017-Dec-01 14:00N 33°54' W 119°08'1 2.0
2017-Dec-01 13:30N 33°54' W 119°09'3 5.4
2017-Dec-01 13:00N 33°52' W 119°11'3 5.4
2017-Dec-01 12:27N 33°50' W 119°14'2 5.3
2017-Dec-01 12:00N 33°49' W 119°16'3 5.2
2017-Dec-01 11:30N 33°47' W 119°19'3 5.2
2017-Dec-01 11:00N 33°45' W 119°20'3 5.3
2017-Dec-01 10:31N 33°42' W 119°20'3 5.2
2017-Dec-01 10:00N 33°40' W 119°20'3 5.4
2017-Dec-01 09:25N 33°37' W 119°20'2 5.3
2017-Dec-01 08:59N 33°34' W 119°20'3 5.4
2017-Dec-01 08:31N 33°32' W 119°20'3 5.6
2017-Dec-01 08:01N 33°29' W 119°19'3 5.4
2017-Dec-01 07:30N 33°27' W 119°17'3 5.2
2017-Dec-01 07:00N 33°24' W 119°16'2 3.3
2017-Dec-01 06:30N 33°23' W 119°15'0 0.9
2017-Dec-01 06:00N 33°23' W 119°14'0 0.0
2017-Dec-01 05:30N 33°23' W 119°14'0 0.0
2017-Dec-01 05:00N 33°23' W 119°14'1 1.7
2017-Dec-01 04:30N 33°22' W 119°14'3 5.3
2017-Dec-01 04:01N 33°20' W 119°13'3 5.3
2017-Dec-01 03:30N 33°17' W 119°11'0 0.9
2017-Dec-01 03:00N 33°17' W 119°11'0 0.0
2017-Dec-01 02:29N 33°17' W 119°11'0 0.0
2017-Dec-01 02:01N 33°17' W 119°11'0 0.5
2017-Dec-01 01:31N 33°17' W 119°11'3 5.7
2017-Dec-01 01:00N 33°20' W 119°12'2 4.3
2017-Dec-01 00:30N 33°22' W 119°13'0 0.3
2017-Dec-01 00:01N 33°22' W 119°13'0 0.3
2017-Nov-30 23:31N 33°22' W 119°13'0 0.1
2017-Nov-30 23:00N 33°22' W 119°14'2 4.4
2017-Nov-30 22:30N 33°20' W 119°12'0 0.7
2017-Nov-30 22:00N 33°20' W 119°12'0 0.0
2017-Nov-30 21:30N 33°20' W 119°12'2 2.9
2017-Nov-30 20:59N 33°19' W 119°11'2 5.2
2017-Nov-30 20:31N 33°16' W 119°10'3 5.3
2017-Nov-30 20:00N 33°14' W 119°09'2 2.7
2017-Nov-30 19:26N 33°12' W 119°09'0 0.0
2017-Nov-30 18:56N 33°12' W 119°09'0 0.0
2017-Nov-30 18:30N 33°12' W 119°09'0 0.9
2017-Nov-30 18:00N 33°13' W 119°09'2 3.6
2017-Nov-30 17:30N 33°15' W 119°10'1 1.7
2017-Nov-30 17:00N 33°15' W 119°10'2 4.3
2017-Nov-30 16:29N 33°13' W 119°09'0 0.0
2017-Nov-30 16:00N 33°13' W 119°09'0 0.0
2017-Nov-30 15:30N 33°13' W 119°09'0 0.0
2017-Nov-30 15:00N 33°13' W 119°09'2 4.1
2017-Nov-30 14:31N 33°11' W 119°08'3 5.1
2017-Nov-30 14:00N 33°09' W 119°08'2 4.5
2017-Nov-30 13:30N 33°07' W 119°08'2 3.4
2017-Nov-30 12:58N 33°08' W 119°08'1 3.0
2017-Nov-30 12:30N 33°10' W 119°09'1 2.8
2017-Nov-30 12:00N 33°11' W 119°09'1 2.8
2017-Nov-30 11:30N 33°12' W 119°09'1 2.9
2017-Nov-30 11:00N 33°14' W 119°09'1 2.9
2017-Nov-30 10:30N 33°15' W 119°10'1 2.8
2017-Nov-30 10:00N 33°17' W 119°11'1 2.9
2017-Nov-30 09:31N 33°18' W 119°11'1 2.8
2017-Nov-30 09:01N 33°19' W 119°12'1 2.8
2017-Nov-30 08:31N 33°20' W 119°13'1 2.9
2017-Nov-30 08:01N 33°22' W 119°14'1 3.0
2017-Nov-30 07:31N 33°23' W 119°15'1 3.0
2017-Nov-30 07:01N 33°24' W 119°16'1 2.8
2017-Nov-30 06:30N 33°25' W 119°17'2 4.2
2017-Nov-30 06:00N 33°27' W 119°18'1 2.9
2017-Nov-30 05:30N 33°26' W 119°17'1 2.5
2017-Nov-30 05:00N 33°25' W 119°16'1 2.6
2017-Nov-30 04:30N 33°24' W 119°15'1 2.7
2017-Nov-30 04:00N 33°23' W 119°14'2 2.9
2017-Nov-30 03:15N 33°21' W 119°13'1 2.9
2017-Nov-30 03:00N 33°20' W 119°12'1 2.6
2017-Nov-30 02:30N 33°19' W 119°12'1 2.5
2017-Nov-30 02:00N 33°18' W 119°11'2 3.1
2017-Nov-30 01:13N 33°16' W 119°10'1 3.1
2017-Nov-30 01:01N 33°15' W 119°10'2 3.0
2017-Nov-30 00:28N 33°14' W 119°09'2 2.9
2017-Nov-29 23:45N 33°11' W 119°08'1 3.0
2017-Nov-29 23:30N 33°11' W 119°08'2 4.0
2017-Nov-29 23:01N 33°09' W 119°08'1 1.7
2017-Nov-29 22:28N 33°08' W 119°09'1 2.8
2017-Nov-29 22:00N 33°09' W 119°09'1 2.8
2017-Nov-29 21:31N 33°11' W 119°08'1 2.8
2017-Nov-29 21:00N 33°12' W 119°09'1 2.8
2017-Nov-29 20:31N 33°14' W 119°09'2 2.9
2017-Nov-29 19:58N 33°15' W 119°10'1 3.0
2017-Nov-29 19:30N 33°16' W 119°10'1 3.0
2017-Nov-29 19:00N 33°18' W 119°11'2 2.9
2017-Nov-29 18:28N 33°19' W 119°12'1 3.0
2017-Nov-29 18:01N 33°20' W 119°12'1 2.9
2017-Nov-29 17:31N 33°22' W 119°13'1 2.9
2017-Nov-29 17:00N 33°23' W 119°14'1 2.7
2017-Nov-29 16:30N 33°24' W 119°15'1 2.8
2017-Nov-29 16:01N 33°25' W 119°16'  

Dump ship's entire track history